Time;durP1;ratioP1;P1;durP2;ratioP2;P2;SDS_P1;SDS_P2;PMS_P1;PMS_P2;Temp;Humidity;BMP_temperature;BMP_pressure;BME280_temperature;BME280_humidity;BME280_pressure;Samples;Min_cycle;Max_cycle;Signal;HPM_P1;HPM_P2
2022/11/17 00:00:38;;;;;;;;;;;;;;;;;;5033892;28;1880;-49
2022/11/17 00:03:05;;;;;;;;;;;;;;;;;;5033792;28;2047;-49
2022/11/17 00:05:34;;;;;;;;;;;;;;;;;;5034108;28;2169;-49
2022/11/17 00:08:01;;;;;;;;;;;;;;;;;;5033738;28;1770;-49
2022/11/17 00:10:28;;;;;;;;;;;;;;;;;;5033890;28;1945;-48
2022/11/17 00:15:42;;;;;;;;;;;;;;;;;;5033512;28;2062;-47
2022/11/17 00:23:46;;;;;;;;;;;;;;;;;;5033407;28;1879;-45
2022/11/17 00:26:32;;;;;;;;;;;;;;;;;;5033425;28;1768;-46
2022/11/17 00:29:05;;;;;;;;;;;;;;;;;;5033477;28;2142;-48
2022/11/17 00:34:20;;;;;;;;;;;;;;;;;;5033102;28;1862;-50
2022/11/17 00:36:48;;;;;;;;;;;;;;;;;;5033184;28;2094;-47
2022/11/17 00:39:16;;;;;;;;;;;;;;;;;;5032115;28;2034;-48
2022/11/17 00:41:43;;;;;;;;;;;;;;;;;;5032782;28;2147;-51
2022/11/17 00:44:11;;;;;;;;;;;;;;;;;;5041010;28;1928;-45
2022/11/17 00:46:38;;;;;;;;;;;;;;;;;;5052954;28;1750;-48
2022/11/17 00:49:06;;;;;;;;;;;;;;;;;;5052899;28;2033;-49
2022/11/17 00:51:33;;;;;;;;;;;;;;;;;;5052937;28;1877;-52
2022/11/17 00:54:01;;;;;;;;;;;;;;;;;;5052699;28;1990;-49
2022/11/17 00:56:28;;;;;;;;;;;;;;;;;;5053007;28;1865;-47
2022/11/17 00:58:55;;;;;;;;;;;;;;;;;;5052476;28;1908;-48
2022/11/17 01:01:23;;;;;;;;;;;;;;;;;;5052489;28;1839;-50
2022/11/17 01:03:50;;;;;;;;;;;;;;;;;;5052567;28;2036;-51
2022/11/17 01:06:18;;;;;;;;;;;;;;;;;;5052445;28;2044;-46
2022/11/17 01:08:46;;;;;;;;;;;;;;;;;;5052665;28;2169;-48
2022/11/17 01:11:17;;;;;;;;;;;;;;;;;;5052681;28;2002;-51
2022/11/17 01:13:46;;;;;;;;;;;;;;;;;;5052445;28;1905;-48
2022/11/17 01:16:14;;;;;;;;;;;;;;;;;;5052371;28;1848;-48
2022/11/17 01:18:42;;;;;;;;;;;;;;;;;;5052440;28;2070;-47
2022/11/17 01:21:12;;;;;;;;;;;;;;;;;;5051675;28;1841;-50
2022/11/17 01:23:40;;;;;;;;;;;;;;;;;;5052161;28;1977;-49
2022/11/17 01:26:09;;;;;;;;;;;;;;;;;;5051881;28;2022;-47
2022/11/17 01:28:36;;;;;;;;;;;;;;;;;;5052141;28;1903;-50
2022/11/17 01:31:05;;;;;;;;;;;;;;;;;;5052217;28;1982;-51
2022/11/17 01:33:33;;;;;;;;;;;;;;;;;;5052201;28;1881;-47
2022/11/17 01:36:03;;;;;;;;;;;;;;;;;;5052032;28;2028;-50
2022/11/17 01:38:31;;;;;;;;;;;;;;;;;;5052032;28;1950;-48
2022/11/17 01:40:59;;;;;;;;;;;;;;;;;;5050746;28;1798;-48
2022/11/17 01:43:35;;;;;;;;;;;;;;;;;;5050746;28;2080;-50
2022/11/17 01:46:03;;;;;;;;;;;;;;;;;;5050691;28;2032;-49
2022/11/17 01:48:30;;;;;;;;;;;;;;;;;;5052289;28;1992;-49
2022/11/17 01:50:58;;;;;;;;;;;;;;;;;;5051916;28;1997;-50
2022/11/17 01:53:27;;;;;;;;;;;;;;;;;;5050400;28;1818;-51
2022/11/17 01:55:56;;;;;;;;;;;;;;;;;;5051714;28;1967;-50
2022/11/17 01:58:26;;;;;;;;;;;;;;;;;;5051428;28;2027;-47
2022/11/17 02:00:56;;;;;;;;;;;;;;;;;;5051697;28;2275;-47
2022/11/17 02:03:25;;;;;;;;;;;;;;;;;;5051494;28;1827;-49
2022/11/17 02:05:59;;;;;;;;;;;;;;;;;;5051582;28;2052;-47
2022/11/17 02:08:28;;;;;;;;;;;;;;;;;;5050535;28;1902;-48
2022/11/17 02:10:55;;;;;;;;;;;;;;;;;;5051194;28;1947;-46
2022/11/17 02:13:23;;;;;;;;;;;;;;;;;;5051560;28;2001;-48
2022/11/17 02:15:51;;;;;;;;;;;;;;;;;;5051784;28;2036;-47
2022/11/17 02:18:19;;;;;;;;;;;;;;;;;;5051160;28;1814;-48
2022/11/17 02:21:07;;;;;;;;;;;;;;;;;;5051079;28;2092;-51
2022/11/17 02:23:46;;;;;;;;;;;;;;;;;;5044166;28;1836;-50
2022/11/17 02:26:28;;;;;;;;;;;;;;;;;;5050795;28;2051;-47
2022/11/17 02:29:03;;;;;;;;;;;;;;;;;;5050845;28;1836;-48
2022/11/17 02:31:31;;;;;;;;;;;;;;;;;;5051307;28;1886;-48
2022/11/17 02:34:11;;;;;;;;;;;;;;;;;;5050705;28;1431;-46
2022/11/17 02:36:53;;;;;;;;;;;;;;;;;;5051180;28;2065;-47
2022/11/17 02:39:39;;;;;;;;;;;;;;;;;;5051130;28;2118;-49
2022/11/17 02:42:09;;;;;;;;;;;;;;;;;;5050780;28;2093;-49
2022/11/17 02:44:46;;;;;;;;;;;;;;;;;;5038117;28;2085;-47
2022/11/17 02:47:17;;;;;;;;;;;;;;;;;;5031279;28;1988;-50
2022/11/17 02:49:46;;;;;;;;;;;;;;;;;;5031055;28;1982;-49
2022/11/17 02:52:15;;;;;;;;;;;;;;;;;;5031021;28;1976;-48
2022/11/17 02:54:42;;;;;;;;;;;;;;;;;;5029843;28;2256;-49
2022/11/17 02:57:28;;;;;;;;;;;;;;;;;;5031032;28;1914;-50
2022/11/17 02:59:57;;;;;;;;;;;;;;;;;;5030652;28;2001;-49
2022/11/17 03:02:43;;;;;;;;;;;;;;;;;;5030803;28;2082;-47
2022/11/17 03:05:34;;;;;;;;;;;;;;;;;;5030849;28;2096;-49
2022/11/17 03:08:37;;;;;;;;;;;;;;;;;;5025823;28;2070;-50
2022/11/17 03:11:05;;;;;;;;;;;;;;;;;;4989129;28;2103;-51
2022/11/17 03:13:36;;;;;;;;;;;;;;;;;;5023877;28;1673;-49
2022/11/17 03:16:22;;;;;;;;;;;;;;;;;;5030659;28;1999;-49
2022/11/17 03:18:52;;;;;;;;;;;;;;;;;;5030677;28;2098;-49
2022/11/17 03:21:27;;;;;;;;;;;;;;;;;;5030875;28;1772;-48
2022/11/17 03:24:05;;;;;;;;;;;;;;;;;;5030714;28;2283;-48
2022/11/17 03:26:35;;;;;;;;;;;;;;;;;;5030662;28;1977;-47
2022/11/17 03:29:05;;;;;;;;;;;;;;;;;;5030921;28;1880;-49
2022/11/17 03:31:33;;;;;;;;;;;;;;;;;;5030799;28;1811;-47
2022/11/17 03:34:04;;;;;;;;;;;;;;;;;;5030710;28;1831;-47
2022/11/17 03:36:34;;;;;;;;;;;;;;;;;;5030820;28;2163;-48
2022/11/17 03:39:22;;;;;;;;;;;;;;;;;;5030659;28;2011;-48
2022/11/17 03:41:52;;;;;;;;;;;;;;;;;;5030574;28;2284;-50
2022/11/17 03:44:23;;;;;;;;;;;;;;;;;;5040772;28;1965;-50
2022/11/17 03:46:53;;;;;;;;;;;;;;;;;;5054021;28;2108;-49
2022/11/17 03:49:38;;;;;;;;;;;;;;;;;;5054099;28;1920;-48
2022/11/17 03:52:06;;;;;;;;;;;;;;;;;;5053881;28;2069;-50
2022/11/17 03:54:34;;;;;;;;;;;;;;;;;;5054118;28;2089;-49
2022/11/17 03:57:04;;;;;;;;;;;;;;;;;;5054062;28;1917;-50
2022/11/17 03:59:54;;;;;;;;;;;;;;;;;;5053837;28;1999;-47
2022/11/17 04:02:23;;;;;;;;;;;;;;;;;;5046059;28;2015;-51
2022/11/17 04:05:06;;;;;;;;;;;;;;;;;;5053737;28;1924;-47
2022/11/17 04:07:43;;;;;;;;;;;;;;;;;;5053629;28;1729;-51
2022/11/17 04:10:13;;;;;;;;;;;;;;;;;;5053603;28;2088;-50
2022/11/17 04:18:14;;;;;;;;;;;;;;;;;;5052004;28;1969;-48
2022/11/17 04:20:41;;;;;;;;;;;;;;;;;;5053691;28;1971;-48
2022/11/17 04:23:13;;;;;;;;;;;;;;;;;;5053083;28;2095;-47
2022/11/17 04:28:38;;;;;;;;;;;;;;;;;;5053220;28;2030;-48
2022/11/17 04:31:05;;;;;;;;;;;;;;;;;;5053403;28;1928;-51
2022/11/17 04:33:33;;;;;;;;;;;;;;;;;;5052914;28;2027;-48
2022/11/17 04:36:02;;;;;;;;;;;;;;;;;;5053401;28;1929;-46
2022/11/17 04:38:29;;;;;;;;;;;;;;;;;;5053179;28;2053;-51
2022/11/17 04:43:46;;;;;;;;;;;;;;;;;;5053042;28;1878;-50
2022/11/17 04:46:15;;;;;;;;;;;;;;;;;;5052931;28;2015;-48
2022/11/17 04:48:42;;;;;;;;;;;;;;;;;;5052940;28;2059;-52
2022/11/17 04:51:10;;;;;;;;;;;;;;;;;;5053074;28;2119;-49
2022/11/17 04:53:37;;;;;;;;;;;;;;;;;;5052912;28;1781;-48
2022/11/17 04:56:04;;;;;;;;;;;;;;;;;;5051986;28;2132;-49
2022/11/17 04:58:32;;;;;;;;;;;;;;;;;;5051395;28;1863;-47
2022/11/17 05:01:11;;;;;;;;;;;;;;;;;;5052551;28;1998;-48
2022/11/17 05:03:41;;;;;;;;;;;;;;;;;;5052521;28;1959;-50
2022/11/17 05:06:09;;;;;;;;;;;;;;;;;;5052782;28;1996;-49
2022/11/17 05:08:38;;;;;;;;;;;;;;;;;;5052551;28;2123;-52
2022/11/17 05:13:52;;;;;;;;;;;;;;;;;;5052471;28;1975;-47
2022/11/17 05:19:06;;;;;;;;;;;;;;;;;;5052240;28;1934;-52
2022/11/17 05:21:34;;;;;;;;;;;;;;;;;;5051891;28;1955;-47
2022/11/17 05:24:01;;;;;;;;;;;;;;;;;;5052550;28;1967;-48
2022/11/17 05:26:30;;;;;;;;;;;;;;;;;;5052621;28;1943;-49
2022/11/17 05:28:59;;;;;;;;;;;;;;;;;;5052623;28;1933;-49
2022/11/17 05:31:27;;;;;;;;;;;;;;;;;;5052295;28;2226;-49
2022/11/17 05:33:54;;;;;;;;;;;;;;;;;;5052034;28;1968;-47
2022/11/17 05:36:23;;;;;;;;;;;;;;;;;;5052098;28;1943;-47
2022/11/17 05:38:51;;;;;;;;;;;;;;;;;;5052090;28;1990;-46
2022/11/17 05:41:19;;;;;;;;;;;;;;;;;;5051791;28;2143;-48
2022/11/17 05:43:49;;;;;;;;;;;;;;;;;;5051788;28;2049;-50
2022/11/17 05:46:17;;;;;;;;;;;;;;;;;;5051766;28;2113;-47
2022/11/17 05:48:44;;;;;;;;;;;;;;;;;;5051834;28;2000;-46
2022/11/17 05:51:12;;;;;;;;;;;;;;;;;;5051758;28;1770;-51
2022/11/17 05:53:39;;;;;;;;;;;;;;;;;;5051677;28;1929;-48
2022/11/17 05:56:23;;;;;;;;;;;;;;;;;;5051600;28;1904;-50
2022/11/17 05:58:53;;;;;;;;;;;;;;;;;;5051684;28;1834;-48
2022/11/17 06:01:21;;;;;;;;;;;;;;;;;;5050437;28;1981;-49
2022/11/17 06:03:53;;;;;;;;;;;;;;;;;;5051543;28;2063;-50
2022/11/17 06:06:23;;;;;;;;;;;;;;;;;;5051663;28;2087;-49
2022/11/17 06:08:55;;;;;;;;;;;;;;;;;;5051309;28;1867;-49
2022/11/17 06:11:23;;;;;;;;;;;;;;;;;;5051301;28;1947;-48
2022/11/17 06:13:50;;;;;;;;;;;;;;;;;;5051244;28;1883;-50
2022/11/17 06:16:20;;;;;;;;;;;;;;;;;;5051114;28;1869;-49
2022/11/17 06:19:08;;;;;;;;;;;;;;;;;;5051506;28;1979;-49
2022/11/17 06:21:36;;;;;;;;;;;;;;;;;;5050946;28;1996;-46
2022/11/17 06:24:23;;;;;;;;;;;;;;;;;;5050955;28;1952;-46
2022/11/17 06:26:51;;;;;;;;;;;;;;;;;;5051577;28;1868;-47
2022/11/17 06:29:19;;;;;;;;;;;;;;;;;;5051388;28;2087;-50
2022/11/17 06:31:47;;;;;;;;;;;;;;;;;;5051121;28;2077;-48
2022/11/17 06:34:14;;;;;;;;;;;;;;;;;;5051017;28;1874;-50
2022/11/17 06:36:41;;;;;;;;;;;;;;;;;;5051077;28;1867;-47
2022/11/17 06:39:09;;;;;;;;;;;;;;;;;;5051137;28;2083;-48
2022/11/17 06:41:40;;;;;;;;;;;;;;;;;;5050579;28;1963;-44
2022/11/17 06:44:07;;;;;;;;;;;;;;;;;;5042062;28;2061;-48
2022/11/17 06:46:38;;;;;;;;;;;;;;;;;;5031070;28;2072;-49
2022/11/17 06:49:08;;;;;;;;;;;;;;;;;;5030904;28;1990;-50
2022/11/17 06:51:36;;;;;;;;;;;;;;;;;;5031288;28;1821;-50
2022/11/17 06:54:09;;;;;;;;;;;;;;;;;;5030903;28;1964;-48
2022/11/17 06:56:39;;;;;;;;;;;;;;;;;;5030967;28;2098;-50
2022/11/17 06:59:06;;;;;;;;;;;;;;;;;;5030749;28;1972;-49
2022/11/17 07:01:35;;;;;;;;;;;;;;;;;;5030705;28;1906;-49
2022/11/17 07:04:03;;;;;;;;;;;;;;;;;;5031158;28;2170;-50
2022/11/17 07:06:31;;;;;;;;;;;;;;;;;;5030902;28;1969;-46
2022/11/17 07:08:58;;;;;;;;;;;;;;;;;;5031280;28;1942;-47
2022/11/17 07:11:26;;;;;;;;;;;;;;;;;;5030502;28;1981;-51
2022/11/17 07:13:53;;;;;;;;;;;;;;;;;;5031005;28;1898;-47
2022/11/17 07:16:21;;;;;;;;;;;;;;;;;;5030421;28;1972;-46
2022/11/17 07:18:51;;;;;;;;;;;;;;;;;;5030675;28;2135;-47
2022/11/17 07:21:18;;;;;;;;;;;;;;;;;;5034616;28;2043;-47
2022/11/17 07:23:46;;;;;;;;;;;;;;;;;;5034627;28;1995;-48
2022/11/17 07:26:14;;;;;;;;;;;;;;;;;;5034751;28;1949;-49
2022/11/17 07:28:42;;;;;;;;;;;;;;;;;;5034445;28;2085;-46
2022/11/17 07:31:09;;;;;;;;;;;;;;;;;;5034360;28;1912;-48
2022/11/17 07:33:37;;;;;;;;;;;;;;;;;;5034558;28;1940;-47
2022/11/17 07:36:05;;;;;;;;;;;;;;;;;;5034468;28;1897;-47
2022/11/17 07:38:33;;;;;;;;;;;;;;;;;;5034566;28;1891;-47
2022/11/17 07:41:01;;;;;;;;;;;;;;;;;;5034365;28;1942;-51
2022/11/17 07:43:29;;;;;;;;;;;;;;;;;;5037774;28;2260;-48
2022/11/17 07:45:57;;;;;;;;;;;;;;;;;;5054322;28;2078;-51
2022/11/17 07:48:24;;;;;;;;;;;;;;;;;;5054099;28;2025;-47
2022/11/17 07:50:52;;;;;;;;;;;;;;;;;;5054050;28;2085;-48
2022/11/17 07:53:20;;;;;;;;;;;;;;;;;;5053842;28;1827;-46
2022/11/17 07:55:47;;;;;;;;;;;;;;;;;;5053792;28;2215;-48
2022/11/17 07:58:15;;;;;;;;;;;;;;;;;;5054070;28;1878;-47
2022/11/17 08:00:42;;;;;;;;;;;;;;;;;;5053617;28;1938;-48
2022/11/17 08:03:10;;;;;;;;;;;;;;;;;;5053924;28;1923;-48
2022/11/17 08:05:38;;;;;;;;;;;;;;;;;;5053897;28;1728;-49
2022/11/17 08:08:09;;;;;;;;;;;;;;;;;;5053471;28;2053;-48
2022/11/17 08:10:36;;;;;;;;;;;;;;;;;;5053685;28;1884;-46
2022/11/17 08:13:05;;;;;;;;;;;;;;;;;;5053620;28;2033;-47
2022/11/17 08:15:32;;;;;;;;;;;;;;;;;;5053995;28;1986;-50
2022/11/17 08:18:00;;;;;;;;;;;;;;;;;;5053604;28;2025;-48
2022/11/17 08:20:28;;;;;;;;;;;;;;;;;;5053533;28;2011;-48
2022/11/17 08:22:56;;;;;;;;;;;;;;;;;;5053433;28;2071;-46
2022/11/17 08:25:24;;;;;;;;;;;;;;;;;;5053286;28;1949;-48
2022/11/17 08:27:56;;;;;;;;;;;;;;;;;;5053346;28;2033;-49
2022/11/17 08:30:24;;;;;;;;;;;;;;;;;;5052557;28;1836;-49
2022/11/17 08:32:52;;;;;;;;;;;;;;;;;;5052837;28;1924;-52
2022/11/17 08:35:23;;;;;;;;;;;;;;;;;;5053228;28;2162;-48
2022/11/17 08:37:51;;;;;;;;;;;;;;;;;;5053196;28;1953;-48
2022/11/17 08:40:19;;;;;;;;;;;;;;;;;;5052954;28;2023;-48
2022/11/17 08:42:51;;;;;;;;;;;;;;;;;;5053017;28;2015;-51
2022/11/17 08:45:25;;;;;;;;;;;;;;;;;;5053069;28;2032;-48
2022/11/17 08:47:52;;;;;;;;;;;;;;;;;;5052713;28;2128;-51
2022/11/17 08:50:20;;;;;;;;;;;;;;;;;;5052737;28;2098;-50
2022/11/17 08:52:48;;;;;;;;;;;;;;;;;;5052955;28;2057;-50
2022/11/17 08:55:15;;;;;;;;;;;;;;;;;;5052815;28;1495;-49
2022/11/17 08:57:43;;;;;;;;;;;;;;;;;;5052871;28;2089;-51
2022/11/17 09:00:11;;;;;;;;;;;;;;;;;;5052580;28;1918;-52
2022/11/17 09:02:38;;;;;;;;;;;;;;;;;;5052256;28;2111;-51
2022/11/17 09:05:06;;;;;;;;;;;;;;;;;;5052565;28;2238;-52
2022/11/17 09:07:34;;;;;;;;;;;;;;;;;;5052572;28;1920;-49
2022/11/17 09:10:05;;;;;;;;;;;;;;;;;;5052664;28;2124;-52
2022/11/17 09:12:32;;;;;;;;;;;;;;;;;;5052766;28;1954;-52
2022/11/17 09:15:00;;;;;;;;;;;;;;;;;;5052549;28;1949;-51
2022/11/17 09:17:27;;;;;;;;;;;;;;;;;;5052435;28;1955;-50
2022/11/17 09:19:55;;;;;;;;;;;;;;;;;;5052380;28;2008;-51
2022/11/17 09:22:22;;;;;;;;;;;;;;;;;;5051116;28;2111;-49
2022/11/17 09:24:50;;;;;;;;;;;;;;;;;;5052322;28;1912;-48
2022/11/17 09:27:17;;;;;;;;;;;;;;;;;;5052325;28;1960;-52
2022/11/17 09:29:45;;;;;;;;;;;;;;;;;;5051933;28;1934;-52
2022/11/17 09:32:12;;;;;;;;;;;;;;;;;;5052038;28;2025;-48
2022/11/17 09:34:40;;;;;;;;;;;;;;;;;;5052362;28;2113;-52
2022/11/17 09:37:07;;;;;;;;;;;;;;;;;;5052081;28;1894;-51
2022/11/17 09:39:34;;;;;;;;;;;;;;;;;;5051919;28;1980;-51
2022/11/17 09:42:02;;;;;;;;;;;;;;;;;;5050951;28;1977;-50
2022/11/17 09:44:30;;;;;;;;;;;;;;;;;;5040182;28;2031;-50
2022/11/17 09:47:21;;;;;;;;;;;;;;;;;;5032202;28;2037;-51
2022/11/17 09:49:54;;;;;;;;;;;;;;;;;;5031858;28;2088;-51
2022/11/17 09:52:28;;;;;;;;;;;;;;;;;;5031611;28;1651;-51
2022/11/17 09:54:57;;;;;;;;;;;;;;;;;;5031671;28;1968;-49
2022/11/17 09:57:33;;;;;;;;;;;;;;;;;;5031691;28;2263;-49
2022/11/17 10:00:09;;;;;;;;;;;;;;;;;;5031876;28;1931;-49
2022/11/17 10:02:37;;;;;;;;;;;;;;;;;;5031709;28;2076;-49
2022/11/17 10:05:05;;;;;;;;;;;;;;;;;;5031706;28;2085;-49
2022/11/17 10:07:33;;;;;;;;;;;;;;;;;;5031969;28;2126;-49
2022/11/17 10:10:02;;;;;;;;;;;;;;;;;;5031747;28;1667;-49
2022/11/17 10:12:32;;;;;;;;;;;;;;;;;;5031542;28;2123;-50
2022/11/17 10:15:15;;;;;;;;;;;;;;;;;;5031776;28;2033;-52
2022/11/17 10:17:43;;;;;;;;;;;;;;;;;;5031433;28;1914;-46
2022/11/17 10:20:16;;;;;;;;;;;;;;;;;;5031224;28;2087;-49
2022/11/17 10:22:45;;;;;;;;;;;;;;;;;;5031250;28;1970;-50
2022/11/17 10:25:32;;;;;;;;;;;;;;;;;;5031241;28;2018;-49
2022/11/17 10:28:00;;;;;;;;;;;;;;;;;;5031936;28;1889;-52
2022/11/17 10:30:27;;;;;;;;;;;;;;;;;;5031252;28;1886;-52
2022/11/17 10:32:56;;;;;;;;;;;;;;;;;;5031502;28;2097;-49
2022/11/17 10:35:23;;;;;;;;;;;;;;;;;;5031188;28;1971;-50
2022/11/17 10:37:59;;;;;;;;;;;;;;;;;;5031020;28;2029;-49
2022/11/17 10:40:28;;;;;;;;;;;;;;;;;;5031082;28;1918;-47
2022/11/17 10:42:57;;;;;;;;;;;;;;;;;;5030184;28;1996;-52
2022/11/17 10:45:25;;;;;;;;;;;;;;;;;;5050439;28;2233;-51
2022/11/17 10:48:06;;;;;;;;;;;;;;;;;;5051124;28;1958;-50
2022/11/17 10:50:33;;;;;;;;;;;;;;;;;;5050056;28;1964;-49
2022/11/17 10:53:20;;;;;;;;;;;;;;;;;;5051066;28;1679;-51
2022/11/17 10:55:52;;;;;;;;;;;;;;;;;;5054159;28;2172;-49
2022/11/17 10:58:27;;;;;;;;;;;;;;;;;;5055173;28;2222;-48
2022/11/17 11:00:58;;;;;;;;;;;;;;;;;;5054917;28;2087;-49
2022/11/17 11:03:30;;;;;;;;;;;;;;;;;;5054883;28;1954;-54
2022/11/17 11:06:00;;;;;;;;;;;;;;;;;;5055007;28;1980;-51
2022/11/17 11:08:46;;;;;;;;;;;;;;;;;;5054809;28;1863;-50
2022/11/17 11:11:38;;;;;;;;;;;;;;;;;;5054819;28;1864;-50
2022/11/17 11:14:12;;;;;;;;;;;;;;;;;;5047543;28;2112;-48
2022/11/17 11:16:39;;;;;;;;;;;;;;;;;;5054864;28;2034;-49
2022/11/17 11:19:14;;;;;;;;;;;;;;;;;;5054591;28;2108;-48
2022/11/17 11:21:52;;;;;;;;;;;;;;;;;;5054472;28;1934;-47
2022/11/17 11:24:22;;;;;;;;;;;;;;;;;;5054303;28;1969;-50
2022/11/17 11:27:04;;;;;;;;;;;;;;;;;;5054641;28;1998;-47
2022/11/17 11:29:35;;;;;;;;;;;;;;;;;;5054887;28;2080;-47
2022/11/17 11:32:05;;;;;;;;;;;;;;;;;;5054722;28;1785;-49
2022/11/17 11:34:32;;;;;;;;;;;;;;;;;;5054499;28;2069;-47
2022/11/17 11:37:07;;;;;;;;;;;;;;;;;;5054643;28;1854;-48
2022/11/17 11:39:53;;;;;;;;;;;;;;;;;;5054213;28;1871;-48
2022/11/17 11:42:27;;;;;;;;;;;;;;;;;;5054218;28;2096;-48
2022/11/17 11:45:02;;;;;;;;;;;;;;;;;;5038642;28;1916;-47
2022/11/17 11:47:36;;;;;;;;;;;;;;;;;;5034360;28;1885;-49
2022/11/17 11:50:09;;;;;;;;;;;;;;;;;;5034505;28;2095;-47
2022/11/17 11:52:39;;;;;;;;;;;;;;;;;;5034127;28;1963;-50
2022/11/17 11:55:19;;;;;;;;;;;;;;;;;;5034185;28;1922;-48
2022/11/17 11:57:54;;;;;;;;;;;;;;;;;;5034085;28;1834;-46
2022/11/17 12:00:24;;;;;;;;;;;;;;;;;;5033828;28;2071;-47
2022/11/17 12:03:01;;;;;;;;;;;;;;;;;;5033904;28;1985;-50
2022/11/17 12:05:48;;;;;;;;;;;;;;;;;;5033905;28;1941;-47
2022/11/17 12:08:18;;;;;;;;;;;;;;;;;;5033950;28;1903;-46
2022/11/17 12:10:49;;;;;;;;;;;;;;;;;;5033962;28;2046;-49
2022/11/17 12:13:18;;;;;;;;;;;;;;;;;;5033947;28;1918;-49
2022/11/17 12:15:45;;;;;;;;;;;;;;;;;;5033876;28;1841;-49
2022/11/17 12:18:16;;;;;;;;;;;;;;;;;;5033522;28;1843;-49
2022/11/17 12:20:54;;;;;;;;;;;;;;;;;;5033521;28;1979;-48
2022/11/17 12:23:46;;;;;;;;;;;;;;;;;;5033673;28;2026;-49
2022/11/17 12:26:22;;;;;;;;;;;;;;;;;;5033436;28;1886;-50
2022/11/17 12:29:10;;;;;;;;;;;;;;;;;;5033418;28;1869;-49
2022/11/17 12:31:42;;;;;;;;;;;;;;;;;;5033439;28;1709;-45
2022/11/17 12:34:17;;;;;;;;;;;;;;;;;;5033457;28;2054;-46
2022/11/17 12:37:04;;;;;;;;;;;;;;;;;;5045673;28;1860;-51
2022/11/17 12:39:53;;;;;;;;;;;;;;;;;;5053355;28;1869;-44
2022/11/17 12:42:20;;;;;;;;;;;;;;;;;;5049029;28;1912;-48
2022/11/17 12:44:49;;;;;;;;;;;;;;;;;;5053090;28;2112;-51
2022/11/17 12:47:45;;;;;;;;;;;;;;;;;;5053064;28;2053;-50
2022/11/17 12:50:40;;;;;;;;;;;;;;;;;;5053450;28;1932;-49
2022/11/17 12:53:25;;;;;;;;;;;;;;;;;;5052999;28;2123;-52
2022/11/17 12:56:04;;;;;;;;;;;;;;;;;;5052957;28;2031;-46
2022/11/17 12:58:50;;;;;;;;;;;;;;;;;;5052863;28;1998;-47
2022/11/17 13:01:35;;;;;;;;;;;;;;;;;;5052438;28;2191;-48
2022/11/17 13:04:09;;;;;;;;;;;;;;;;;;5052993;28;1828;-49
2022/11/17 13:06:37;;;;;;;;;;;;;;;;;;5052728;28;2046;-46
2022/11/17 13:09:06;;;;;;;;;;;;;;;;;;5052978;28;1810;-48
2022/11/17 13:11:34;;;;;;;;;;;;;;;;;;5052822;28;1976;-48
2022/11/17 13:14:12;;;;;;;;;;;;;;;;;;5051615;28;1976;-50
2022/11/17 13:16:45;;;;;;;;;;;;;;;;;;5051681;28;1954;-46
2022/11/17 13:19:31;;;;;;;;;;;;;;;;;;5052569;28;1993;-47
2022/11/17 13:22:12;;;;;;;;;;;;;;;;;;5052326;28;1931;-47
2022/11/17 13:24:45;;;;;;;;;;;;;;;;;;5052465;28;1911;-46
2022/11/17 13:27:22;;;;;;;;;;;;;;;;;;5052181;28;1935;-47
2022/11/17 13:29:50;;;;;;;;;;;;;;;;;;5052300;28;1941;-48
2022/11/17 13:32:19;;;;;;;;;;;;;;;;;;5052210;28;2070;-44
2022/11/17 13:34:58;;;;;;;;;;;;;;;;;;5052262;28;1946;-47
2022/11/17 13:37:27;;;;;;;;;;;;;;;;;;5052000;28;1894;-50
2022/11/17 13:39:55;;;;;;;;;;;;;;;;;;5052111;28;2068;-47
2022/11/17 13:42:23;;;;;;;;;;;;;;;;;;5051994;28;1978;-50
2022/11/17 13:44:56;;;;;;;;;;;;;;;;;;5052154;28;2187;-48
2022/11/17 13:47:40;;;;;;;;;;;;;;;;;;5051864;28;2031;-48
2022/11/17 13:50:21;;;;;;;;;;;;;;;;;;5051781;28;1828;-49
2022/11/17 13:52:52;;;;;;;;;;;;;;;;;;5051833;28;1967;-49
2022/11/17 13:55:21;;;;;;;;;;;;;;;;;;5051945;28;2045;-46
2022/11/17 13:58:04;;;;;;;;;;;;;;;;;;5051576;28;2121;-46
2022/11/17 14:00:32;;;;;;;;;;;;;;;;;;5051488;28;1952;-50
2022/11/17 14:03:04;;;;;;;;;;;;;;;;;;5051482;28;2076;-47
2022/11/17 14:05:32;;;;;;;;;;;;;;;;;;5052016;28;1930;-52
2022/11/17 14:08:10;;;;;;;;;;;;;;;;;;5051519;28;1936;-48
2022/11/17 14:10:38;;;;;;;;;;;;;;;;;;5051073;28;1891;-47
2022/11/17 14:13:05;;;;;;;;;;;;;;;;;;5051400;28;1977;-46
2022/11/17 14:15:35;;;;;;;;;;;;;;;;;;5051708;28;1890;-45
2022/11/17 14:18:06;;;;;;;;;;;;;;;;;;5051538;28;1713;-49
2022/11/17 14:20:34;;;;;;;;;;;;;;;;;;5051681;28;1930;-47
2022/11/17 14:23:06;;;;;;;;;;;;;;;;;;5051523;28;1934;-46
2022/11/17 14:25:35;;;;;;;;;;;;;;;;;;5050145;28;1944;-47
2022/11/17 14:28:03;;;;;;;;;;;;;;;;;;5051522;28;2090;-46
2022/11/17 14:30:30;;;;;;;;;;;;;;;;;;5050272;28;1831;-48
2022/11/17 14:32:57;;;;;;;;;;;;;;;;;;5051045;28;2006;-48
2022/11/17 14:35:32;;;;;;;;;;;;;;;;;;5051266;28;1832;-48
2022/11/17 14:38:00;;;;;;;;;;;;;;;;;;5051038;28;2036;-49
2022/11/17 14:40:31;;;;;;;;;;;;;;;;;;5051243;28;1979;-48
2022/11/17 14:42:58;;;;;;;;;;;;;;;;;;5051148;28;1915;-49
2022/11/17 14:45:26;;;;;;;;;;;;;;;;;;5031244;28;2159;-51
2022/11/17 14:47:53;;;;;;;;;;;;;;;;;;5031348;28;2079;-49
2022/11/17 14:50:20;;;;;;;;;;;;;;;;;;5030892;28;2014;-48
2022/11/17 14:52:48;;;;;;;;;;;;;;;;;;5030839;28;2111;-52
2022/11/17 14:55:16;;;;;;;;;;;;;;;;;;5031226;28;2045;-49
2022/11/17 14:57:43;;;;;;;;;;;;;;;;;;5031080;28;2052;-46
2022/11/17 15:00:11;;;;;;;;;;;;;;;;;;5030902;28;1899;-45
2022/11/17 15:02:45;;;;;;;;;;;;;;;;;;5030961;28;2122;-49
2022/11/17 15:05:13;;;;;;;;;;;;;;;;;;5030970;28;2160;-50
2022/11/17 15:07:41;;;;;;;;;;;;;;;;;;5031093;28;1781;-46
2022/11/17 15:10:09;;;;;;;;;;;;;;;;;;5030879;28;1989;-49
2022/11/17 15:12:36;;;;;;;;;;;;;;;;;;5030947;28;2160;-46
2022/11/17 15:15:04;;;;;;;;;;;;;;;;;;5030978;28;1971;-47
2022/11/17 15:17:32;;;;;;;;;;;;;;;;;;5030146;28;2049;-48
2022/11/17 15:19:59;;;;;;;;;;;;;;;;;;5028991;28;2112;-47
2022/11/17 15:22:27;;;;;;;;;;;;;;;;;;5028606;28;1982;-47
2022/11/17 15:24:54;;;;;;;;;;;;;;;;;;5029147;28;1988;-50
2022/11/17 15:27:22;;;;;;;;;;;;;;;;;;5028867;28;2039;-46
2022/11/17 15:29:50;;;;;;;;;;;;;;;;;;5029603;28;1858;-47
2022/11/17 15:32:17;;;;;;;;;;;;;;;;;;5030433;28;1741;-48
2022/11/17 15:34:45;;;;;;;;;;;;;;;;;;5030804;28;2099;-46
2022/11/17 15:37:12;;;;;;;;;;;;;;;;;;5030746;28;1957;-49
2022/11/17 15:39:40;;;;;;;;;;;;;;;;;;5029453;28;2190;-48
2022/11/17 15:42:07;;;;;;;;;;;;;;;;;;5034170;28;2002;-47
2022/11/17 15:44:36;;;;;;;;;;;;;;;;;;5047172;28;1955;-47
2022/11/17 15:47:03;;;;;;;;;;;;;;;;;;5054401;28;2071;-48
2022/11/17 15:49:31;;;;;;;;;;;;;;;;;;5054494;28;1936;-49
2022/11/17 15:51:58;;;;;;;;;;;;;;;;;;5054008;28;2180;-49
2022/11/17 15:54:26;;;;;;;;;;;;;;;;;;5054147;28;1949;-48
2022/11/17 15:56:54;;;;;;;;;;;;;;;;;;5054241;28;2053;-51
2022/11/17 15:59:21;;;;;;;;;;;;;;;;;;5053775;28;1987;-47
2022/11/17 16:01:49;;;;;;;;;;;;;;;;;;5054008;28;2111;-49
2022/11/17 16:04:16;;;;;;;;;;;;;;;;;;5053676;28;2171;-48
2022/11/17 16:06:45;;;;;;;;;;;;;;;;;;5053919;28;2094;-47
2022/11/17 16:09:12;;;;;;;;;;;;;;;;;;5053886;28;1736;-51
2022/11/17 16:11:41;;;;;;;;;;;;;;;;;;5053605;28;2262;-47
2022/11/17 16:14:08;;;;;;;;;;;;;;;;;;5053596;28;1959;-47
2022/11/17 16:16:37;;;;;;;;;;;;;;;;;;5053865;28;1415;-47
2022/11/17 16:19:05;;;;;;;;;;;;;;;;;;5053841;28;2051;-50
2022/11/17 16:21:34;;;;;;;;;;;;;;;;;;5053872;28;1885;-50
2022/11/17 16:24:02;;;;;;;;;;;;;;;;;;5053595;28;1946;-49
2022/11/17 16:26:29;;;;;;;;;;;;;;;;;;5053404;28;1960;-46
2022/11/17 16:28:57;;;;;;;;;;;;;;;;;;5053478;28;2013;-49
2022/11/17 16:31:26;;;;;;;;;;;;;;;;;;5053392;28;2060;-48
2022/11/17 16:33:57;;;;;;;;;;;;;;;;;;5053645;28;1967;-49
2022/11/17 16:36:26;;;;;;;;;;;;;;;;;;5053309;28;1851;-50
2022/11/17 16:38:59;;;;;;;;;;;;;;;;;;5052993;28;1600;-48
2022/11/17 16:41:31;;;;;;;;;;;;;;;;;;5053297;28;1991;-49
2022/11/17 16:43:59;;;;;;;;;;;;;;;;;;5045432;28;2161;-48
2022/11/17 16:46:28;;;;;;;;;;;;;;;;;;5033068;28;2064;-48
2022/11/17 16:48:59;;;;;;;;;;;;;;;;;;5033206;28;1854;-50
2022/11/17 16:51:26;;;;;;;;;;;;;;;;;;5032534;28;1841;-50
2022/11/17 16:53:55;;;;;;;;;;;;;;;;;;5032524;28;2090;-51
2022/11/17 16:56:22;;;;;;;;;;;;;;;;;;5032894;28;1904;-49
2022/11/17 16:58:50;;;;;;;;;;;;;;;;;;5032604;28;1969;-50
2022/11/17 17:01:21;;;;;;;;;;;;;;;;;;5032847;28;2115;-49
2022/11/17 17:03:53;;;;;;;;;;;;;;;;;;5032484;28;2012;-48
2022/11/17 17:06:21;;;;;;;;;;;;;;;;;;5032751;28;2158;-50
2022/11/17 17:08:55;;;;;;;;;;;;;;;;;;5033081;28;1918;-50
2022/11/17 17:11:23;;;;;;;;;;;;;;;;;;5032593;28;2028;-48
2022/11/17 17:13:50;;;;;;;;;;;;;;;;;;5032678;28;2056;-49
2022/11/17 17:16:18;;;;;;;;;;;;;;;;;;5032357;28;2039;-46
2022/11/17 17:18:46;;;;;;;;;;;;;;;;;;5032760;28;2034;-47
2022/11/17 17:21:15;;;;;;;;;;;;;;;;;;5032663;28;2250;-48
2022/11/17 17:23:44;;;;;;;;;;;;;;;;;;5033927;28;1974;-47
2022/11/17 17:26:15;;;;;;;;;;;;;;;;;;5052343;28;1857;-47
2022/11/17 17:28:46;;;;;;;;;;;;;;;;;;5052433;28;2065;-47
2022/11/17 17:31:14;;;;;;;;;;;;;;;;;;5052249;28;1638;-46
2022/11/17 17:33:47;;;;;;;;;;;;;;;;;;5052185;28;2053;-49
2022/11/17 17:36:19;;;;;;;;;;;;;;;;;;5052338;28;2079;-48
2022/11/17 17:38:47;;;;;;;;;;;;;;;;;;5052161;28;1972;-48
2022/11/17 17:41:21;;;;;;;;;;;;;;;;;;5051922;28;2054;-47
2022/11/17 17:43:52;;;;;;;;;;;;;;;;;;5051999;28;1914;-46
2022/11/17 17:46:20;;;;;;;;;;;;;;;;;;5036585;28;2081;-52
2022/11/17 17:48:47;;;;;;;;;;;;;;;;;;5031903;28;1726;-47
2022/11/17 17:51:18;;;;;;;;;;;;;;;;;;5032129;28;2010;-47
2022/11/17 17:53:49;;;;;;;;;;;;;;;;;;5031817;28;1738;-49
2022/11/17 17:56:17;;;;;;;;;;;;;;;;;;5032013;28;1925;-48